CheckWX is a tool to help pilots better visualize weather data.  It is not intended as a substitute for an official pre-flight weather briefing.

05:14:17 UTC

KBUR TAF
Bob Hope Airport
Burbank, California, USA
KBUR 192332Z 2000/2024 17008KT P6SM SKC FM200300 13006KT P6SM SKC FM200800 VRB03KT P6SM SKC FM202000 17008KT P6SM SKC

Aug-20@
00:00 UTC

Aug-20 @ 00:00 UTC

Aug-20@
03:00 UTC

Aug-20 @ 03:00 UTC

KBUR 192332Z 2000/2024 17008KT P6SM SKC

Expired

Wind
  • 170° at 8 KTS
Cloud Levels
  • Clear skies

Aug-20@
03:00 UTC

Aug-20 @ 03:00 UTC

Aug-20@
08:00 UTC

Aug-20 @ 08:00 UTC

FM200300 13006KT P6SM SKC

From

From Standard forecast or significant change

Wind
  • 130° at 6 KTS
Cloud Levels
  • Clear skies

Aug-20@
08:00 UTC

Aug-20 @ 08:00 UTC

Aug-20@
20:00 UTC

Aug-20 @ 20:00 UTC

FM200800 VRB03KT P6SM SKC

From

From Standard forecast or significant change

Wind
  • Variable at 3 KTS
Cloud Levels
  • Clear skies

Aug-20@
20:00 UTC

Aug-20 @ 20:00 UTC

Aug-21@
00:00 UTC

Aug-21 @ 00:00 UTC

FM202000 17008KT P6SM SKC

From

From Standard forecast or significant change

Wind
  • 170° at 8 KTS
Cloud Levels
  • Clear skies